CheckWX is a tool to help pilots better visualize weather data.  It is not intended as a substitute for an official pre-flight weather briefing.

21:23:50 UTC

KRCM METAR
Skyhaven Airport
Warrensburg, Missouri, USA
Current

8 hours ago

KRCM 191335Z AUTO 15003KT 10SM CLR 22/19 A3002 RMK AO2
Observed
Sep-19 @ 13:35 UTC
Wind
  • 150° at 3 KTS
Visibility
10 SM
Flight Rules
VFR
Cloud Levels
  • Clear skies
Temperature
22°C / 72°F
Dewpoint
19°C / 66°F
Humidity
83%
Altimeter
30.02" Hg
Pressure
1016.62 hPa
Previous

16 hours ago

KRCM 190515Z AUTO 15003KT 10SM CLR 23/20 A2999 RMK AO2
Observed
Sep-19 @ 05:15 UTC
Wind
  • 150° at 3 KTS
Visibility
10 SM
Flight Rules
VFR
Cloud Levels
  • Clear skies
Temperature
23°C / 73°F
Dewpoint
20°C / 68°F
Humidity
83%
Altimeter
29.99" Hg
Pressure
1015.62 hPa